ATIS

This page displays the latest information from the ‘Barton ATIS’, which provides real time information on the availability of the airport, unofficial weather observations and status of facilities.Please ensure that you check the date and time to ensure the data below is current. All times are UTC.

Latest Weather Information

Updated: 22/02/2017 12:55:31 UTC
Information: H / 1300 UTC
Status: Airfield Closed to Fixed Wing Aircraft
Touch and Go’s: Not Permitted
Runway in Use: 26L, Circuit Direction: RH
Runway Status: 08L/26R – Closed due Waterlogging

08R/26L – Closed due Waterlogging

14/32 – Closed due Waterlogging

02/20 – Closed due Waterlogging

Weather information:

Unofficial Weather EGCB 221300Z 26017G27KT 9999 FEW010 OVC025 09/07 Q1006 -RA BARTON QFE 1004

Briefing Information:

-CRANE ACTIVITY WITHIN ATZ. REFER TO NOTAMS.
-CAUTION INCREASED BIRD ACTIVITY




Airfield Closes: 1732 UTC

Surface Wind

Wind Speed Wind Direction

City Airport live weather on wunderground.com :

Real Time Wind Speeds :

 

 

 

By continuing to use the site, you agree to the use of cookies. more information

The cookie settings on this website are set to "allow cookies" to give you the best browsing experience possible. If you continue to use this website without changing your cookie settings or you click "Accept" below then you are consenting to this.

Close